• Join FlightAware (Why Join?)
  • Login
  • US Flag 
06:25AM EST


 

Airport Tracker/Info


-or-


 

Live Flight TrackerFlight Track Log ✈ CPZ5750 ✈ 12-Jul-2013 ✈ KALB - KMSP

Flight Track Log - Related Links

Times and Time Zones

All times are in EDT time to prevent confusion due to time zone crossing. See the CPZ5750 flight status page for this flight to view local times or setup timezone preferences in your user account.

Time Position Orientation Groundspeed Altitude Reporting Facility
EDT Latitude Longitude Course Direction KTS MPH feet Rate Location/Type
07:33PM 42.7861 -73.8122 348° North 145 167 1,900  Level Boston Center
07:34PM 42.8333 -73.8669 320° Northwest 248 285 3,300 2,333 Climbing Boston Center
07:36PM 42.8453 -74.4051 283° West  Level FlightAware Approximate
07:36PM 42.9050 -73.9678 314° West 285 328 7,500  Level Boston Center
07:37PM 42.8822 -74.5489 324° Northwest  Level FlightAware Approximate
07:37PM 42.9581 -74.0372 316° Northwest 285 328 10,100  Level Boston Center
07:38PM 42.9044 -74.7033 281° West  Level FlightAware Approximate
07:38PM 43.0278 -74.1328 315° West 310 357 11,700  Level Boston Center
07:39PM 43.0953 -74.2172 318° Northwest 345 397 13,500 2,050 Climbing Boston Center
07:40PM 43.1767 -74.3250 316° Northwest 371 427 15,800 2,100 Climbing Boston Center
07:41PM 43.2081 -74.4456 290° West 372 428 17,700 1,800 Climbing Boston Center
07:42PM 43.2092 -74.6108 271° West 372 428 19,400 1,750 Climbing Boston Center
07:43PM 43.2061 -74.7644 268° West 389 448 21,200 1,700 Climbing Boston Center
07:44PM 43.2008 -74.9181 267° West 401 461 22,800 1,364 Climbing Boston Center
07:45PM 43.1953 -75.0747 267° West 411 473 24,200 1,455 Climbing Boston Center
07:46PM 43.1906 -75.2708 268° West 423 487 26,000 1,450 Climbing Boston Center
07:47PM 43.1864 -75.4331 268° West 423 487 27,100 1,000 Climbing Boston Center
07:48PM 43.1822 -75.5925 268° West 423 487 28,000 950 Climbing Boston Center
07:49PM 43.1775 -75.7600 268° West 429 494 29,000 1,100 Climbing Boston Center
07:50PM 43.1711 -75.9050 267° West 429 494 30,200 1,229 Climbing Boston Center
07:53PM 43.1522 -76.3028 266° West 408 470 33,300 1,171 Climbing Cleveland Center
07:54PM 43.1408 -76.4514 264° West 403 464 34,300 950 Climbing Cleveland Center
07:55PM 43.1294 -76.5975 264° West 398 458 35,200 750 Climbing Cleveland Center
07:56PM 43.1153 -76.7378 262° West 392 451 35,800 400 Climbing Cleveland Center
07:57PM 43.1014 -76.8836 263° West 387 445 36,000 100 Climbing Cleveland Center
07:58PM 43.0894 -77.0322 264° West 392 451 36,000  Level Cleveland Center
07:59PM 43.0750 -77.1781 262° West 392 451 36,000  Level Cleveland Center
08:00PM 43.0606 -77.3267 262° West 392 451 36,000  Level Cleveland Center
08:01PM 43.0478 -77.4750 263° West 392 451 36,000  Level Cleveland Center
08:02PM 43.0603 -77.6250 277° West 392 451 36,000  Level Cleveland Center
08:03PM 43.1014 -77.7794 290° West 417 480 36,000  Level Cleveland Center
08:04PM 43.1425 -77.9314 290° West 417 480 36,000  Level Cleveland Center
08:05PM 43.1836 -78.0833 290° West 417 480 36,000  Level Cleveland Center
08:06PM 43.2242 -78.2356 290° West 422 486 36,000  Level Cleveland Center
08:07PM 43.2667 -78.3881 291° West 422 486 36,000  Level Cleveland Center
08:08PM 43.3072 -78.5433 290° West 422 486 36,000  Level Cleveland Center
08:09PM 43.3472 -78.6964 290° West 427 491 36,000  Level Cleveland Center
08:09PM 43.3833 -78.8000 296° West 430 495 36,000  Level Toronto Center
08:10PM 43.4167 -78.9667 285° West 430 495 36,000  Level Toronto Center
08:11PM 43.4500 -79.1333 285° West 430 495 36,000  Level Toronto Center
08:12PM 43.4833 -79.2667 289° West 440 506 36,000  Level Toronto Center
08:13PM 43.5333 -79.4500 291° West 440 506 36,000  Level Toronto Center
08:14PM 43.5667 -79.6167 285° West 440 506 36,000  Level Toronto Center
08:15PM 43.6167 -79.7667 295° West 460 529 36,000  Level Toronto Center
08:16PM 43.6500 -79.9333 286° West 440 506 36,000  Level Toronto Center
08:17PM 43.7000 -80.1000 293° West 440 506 36,000  Level Toronto Center
08:18PM 43.7333 -80.2500 287° West 440 506 36,000  Level Toronto Center
08:19PM 43.7667 -80.4167 286° West 450 518 36,000  Level Toronto Center
08:20PM 43.8167 -80.5833 293° West 450 518 36,000  Level Toronto Center
08:21PM 43.8500 -80.7500 286° West 450 518 36,000  Level Toronto Center
08:22PM 43.8833 -80.9000 287° West 450 518 36,000  Level Toronto Center
08:23PM 43.9167 -81.0667 286° West 460 529 36,000  Level Toronto Center
08:24PM 43.9667 -81.2500 291° West 450 518 36,000  Level Toronto Center
08:25PM 44.0000 -81.4000 287° West 450 518 36,000  Level Toronto Center
08:26PM 44.0333 -81.5833 284° West 440 506 36,000  Level Toronto Center
08:27PM 44.0833 -81.7500 293° West 450 518 36,000  Level Toronto Center
08:28PM 44.1167 -81.8833 289° West 450 518 36,000  Level Toronto Center
08:29PM 44.1500 -82.0667 284° West 450 518 36,000  Level Toronto Center
08:30PM 44.1833 -82.2167 287° West 450 518 36,000  Level Toronto Center
08:31PM 44.2167 -82.4000 284° West 440 506 36,000  Level Toronto Center
08:33PM 44.2575 -82.6458 283° West 461 531 36,000  Level Minneapolis Center
08:34PM 44.2808 -82.8539 279° West 456 525 36,000  Level Minneapolis Center
08:35PM 44.2983 -83.0272 278° West 453 521 36,000  Level Minneapolis Center
08:36PM 44.3178 -83.1978 279° West 449 517 36,000  Level Minneapolis Center
08:37PM 44.3347 -83.3697 278° West 449 517 36,000  Level Minneapolis Center
08:38PM 44.3547 -83.5397 279° West 446 513 36,000  Level Minneapolis Center
08:39PM 44.3731 -83.7119 279° West 449 517 36,000  Level Minneapolis Center
08:40PM 44.3922 -83.9178 277° West 447 514 36,000  Level Minneapolis Center
08:41PM 44.4067 -84.0544 278° West 445 512 36,000  Level Minneapolis Center
08:42PM 44.4272 -84.2589 278° West 444 511 36,000  Level Minneapolis Center
08:43PM 44.4439 -84.4319 278° West 450 518 36,000  Level Minneapolis Center
08:44PM 44.4611 -84.6064 278° West 453 521 36,000  Level Minneapolis Center
08:45PM 44.4781 -84.7811 278° West 455 524 36,000  Level Minneapolis Center
08:46PM 44.4964 -84.9911 277° West 455 524 36,000  Level Minneapolis Center
08:47PM 44.5128 -85.1636 278° West 450 518 36,000  Level Minneapolis Center
08:48PM 44.5281 -85.3367 277° West 449 517 36,000  Level Minneapolis Center
08:49PM 44.5425 -85.5092 277° West 447 514 36,000  Level Minneapolis Center
08:50PM 44.5572 -85.6811 277° West 443 510 36,000  Level Minneapolis Center
08:52PM 44.5706 -85.8503 276° West 436 502 36,000  Level Minneapolis Center
08:53PM 44.5847 -86.0203 277° West 434 499 36,000  Level Minneapolis Center
08:54PM 44.5983 -86.1922 276° West 437 503 36,000  Level Minneapolis Center
08:55PM 44.6147 -86.3950 277° West 433 498 36,000  Level Minneapolis Center
08:56PM 44.6289 -86.5647 277° West 435 501 36,000  Level Minneapolis Center
08:57PM 44.6408 -86.7328 276° West 434 499 36,000  Level Minneapolis Center
08:58PM 44.6567 -86.9336 276° West 433 498 36,000  Level Minneapolis Center
08:59PM 44.6683 -87.1011 276° West 432 497 36,000  Level Minneapolis Center
09:00PM 44.6806 -87.2681 276° West 431 496 36,000  Level Minneapolis Center
09:01PM 44.6950 -87.4664 276° West 428 493 36,000  Level Minneapolis Center
09:02PM 44.7056 -87.6353 275° West 431 496 36,000  Level Minneapolis Center
09:03PM 44.7172 -87.8033 276° West 433 498 36,000  Level Minneapolis Center
09:04PM 44.7267 -87.9753 274° West 432 497 36,000  Level Minneapolis Center
09:05PM 44.7381 -88.1442 275° West 435 501 36,000  Level Minneapolis Center
09:06PM 44.7522 -88.3692 275° West 434 499 36,000  Level Minneapolis Center
09:07PM 44.7631 -88.5383 275° West 436 502 36,000  Level Minneapolis Center
09:08PM 44.7731 -88.7078 275° West 436 502 36,000  Level Minneapolis Center
09:10PM 44.7817 -88.8753 274° West 431 496 36,000  Level Minneapolis Center
09:11PM 44.7933 -89.1011 274° West 435 501 36,000  Level Minneapolis Center
09:12PM 44.8019 -89.2667 274° West 430 495 36,000  Level Minneapolis Center
09:13PM 44.8111 -89.4292 275° West 423 487 36,000 -435 Level Minneapolis Center
09:14PM 44.8189 -89.5961 274° West 426 490 35,100 -1,065 Descending Minneapolis Center
09:15PM 44.8292 -89.7894 274° West 443 510 33,800 -1,210 Descending Minneapolis Center
09:16PM 44.8369 -89.9669 274° West 451 519 32,600 -871 Descending Minneapolis Center
09:17PM 44.8450 -90.1417 274° West 448 516 32,000 -288 Descending Minneapolis Center
09:18PM 44.8539 -90.3206 274° West 455 524 32,000  Level Minneapolis Center
09:19PM 44.8606 -90.4975 273° West 452 520 32,000  Level Minneapolis Center
09:20PM 44.8719 -90.7092 274° West 451 519 32,000  Level Minneapolis Center
09:21PM 44.8917 -90.8831 279° West 449 517 32,000  Level Minneapolis Center
09:22PM 44.9111 -91.0611 279° West 445 512 32,000 -823 Level Minneapolis Center
09:23PM 44.9328 -91.2361 280° West 449 517 30,300 -2,371 Descending Minneapolis Center
09:24PM 44.9508 -91.4094 278° West 451 519 27,100 -3,048 Descending Minneapolis Center
09:25PM 44.9719 -91.5753 280° West 437 503 24,000 -2,952 Descending Minneapolis Center
09:26PM 44.9889 -91.7364 279° West 422 486 21,000 -3,048 Descending Minneapolis Center
09:27PM 45.0094 -91.9172 279° West 392 451 17,700 -2,903 Descending Minneapolis Center
09:28PM 45.0256 -92.0622 279° West 375 432 15,000 -2,565 Descending Minneapolis Center
09:29PM 45.0400 -92.2022 278° West 364 419 12,400 -1,887 Descending Minneapolis Center
09:30PM 45.0419 -92.3356 271° West 343 395 11,100 -683 Descending Minneapolis Center
09:31PM 45.0206 -92.4658 257° West 340 391 11,000 -49 Descending Minneapolis Center
09:32PM 45.0006 -92.5978 258° West 344 396 11,000  Level Minneapolis Center
09:33PM 44.9800 -92.7275 257° West 341 392 11,000 -244 Level Minneapolis Center
09:35PM 44.9597 -92.8528 257° West 328 377 10,500 -1,016 Descending Minneapolis Center
09:36PM 44.9392 -92.9767 257° West 275 316 8,900 -1,210 Descending Minneapolis Center
09:37PM 44.9342 -93.0772 266° West 270 311 8,000 -683 Descending Minneapolis Center
09:38PM 44.9700 -93.1475 306° West 278 320 7,500 -968 Descending Minneapolis Center
09:39PM 45.0239 -93.2528 306° West 279 321 6,000 -878 Descending Minneapolis Center
09:40PM 45.0619 -93.3231 307° West 222 255 5,700 -488 Descending Minneapolis Center
09:41PM 45.1069 -93.3956 311° West 203 234 5,000 -726 Descending Minneapolis Center
09:42PM 45.1053 -93.4447 267° West 161 185 4,200 -488 Descending Minneapolis Center
09:43PM 45.0747 -93.4400 174° South 153 176 4,000 -98 Descending Minneapolis Center
09:44PM 45.0264 -93.4044 153° Southeast 162 186 4,000 -97 Level Minneapolis Center
09:45PM 44.9872 -93.3769 154° Southeast 158 182 3,800 -484 Descending Minneapolis Center
09:46PM 44.9503 -93.3506 153° Southeast 150 173 3,000 -774 Descending Minneapolis Center